createdAt,value
2023-02-25T00:02:08.718Z,2.33
2023-02-25T00:04:38.246Z,2.22
2023-02-25T00:07:06.248Z,1.90
2023-02-25T00:09:34.253Z,2.40
2023-02-25T00:12:02.614Z,1.77
2023-02-25T00:14:30.738Z,1.98
2023-02-25T00:16:58.727Z,2.60
2023-02-25T00:19:27.557Z,2.10
2023-02-25T00:21:56.935Z,2.33
2023-02-25T00:24:24.998Z,2.03
2023-02-25T00:26:53.064Z,2.58
2023-02-25T00:29:20.980Z,2.58
2023-02-25T00:31:49.145Z,2.03
2023-02-25T00:34:17.803Z,2.63
2023-02-25T00:36:46.021Z,2.25
2023-02-25T00:39:18.750Z,2.00
2023-02-25T00:41:46.772Z,2.08
2023-02-25T00:44:14.802Z,2.40
2023-02-25T00:46:42.811Z,2.35
2023-02-25T00:49:12.136Z,2.13
2023-02-25T00:51:41.416Z,1.95
2023-02-25T00:54:09.405Z,2.35
2023-02-25T00:56:38.870Z,2.15
2023-02-25T00:59:06.794Z,2.17
2023-02-25T01:01:38.014Z,2.30
2023-02-25T01:04:06.333Z,2.33
2023-02-25T01:06:35.192Z,2.50
2023-02-25T01:09:05.364Z,2.15
2023-02-25T01:11:35.562Z,2.20
2023-02-25T01:14:07.529Z,2.22
2023-02-25T01:16:36.429Z,2.05
2023-02-25T01:19:07.432Z,2.05
2023-02-25T01:21:37.606Z,2.25
2023-02-25T01:24:08.234Z,1.77
2023-02-25T01:26:38.424Z,2.15
2023-02-25T01:29:10.129Z,2.22
2023-02-25T01:31:38.467Z,2.42
2023-02-25T01:34:08.510Z,2.13
2023-02-25T01:36:36.747Z,2.10
2023-02-25T01:39:05.727Z,2.30
2023-02-25T01:41:35.851Z,1.90
2023-02-25T01:44:11.998Z,1.83
2023-02-25T01:46:42.178Z,2.22
2023-02-25T01:49:14.592Z,2.17
2023-02-25T01:51:43.716Z,1.83
2023-02-25T01:54:12.435Z,2.20
2023-02-25T01:56:42.678Z,2.40
2023-02-25T01:59:13.269Z,2.30
2023-02-25T02:01:42.002Z,1.98
2023-02-25T02:04:14.502Z,2.15
2023-02-25T02:06:44.208Z,1.80
2023-02-25T02:09:14.552Z,2.03
2023-02-25T02:11:43.828Z,1.95
2023-02-25T02:14:18.451Z,2.30
2023-02-25T02:17:06.857Z,1.75
2023-02-25T02:19:50.395Z,2.17
2023-02-25T02:22:24.854Z,1.80
2023-02-25T02:25:31.079Z,1.98
2023-02-25T02:28:33.686Z,2.00
2023-02-25T02:31:40.494Z,2.13
2023-02-25T02:34:21.576Z,1.95
2023-02-25T02:37:00.225Z,1.90
2023-02-25T02:39:35.724Z,2.28
2023-02-25T02:42:12.486Z,1.63
2023-02-25T02:44:46.641Z,1.65
2023-02-25T02:47:23.219Z,2.05
2023-02-25T02:49:58.454Z,1.70
2023-02-25T02:52:30.412Z,2.55
2023-02-25T02:55:03.048Z,2.08
2023-02-25T02:57:35.632Z,1.83
2023-02-25T03:00:13.825Z,2.28
2023-02-25T03:02:44.263Z,1.80
2023-02-25T03:05:17.782Z,2.03
2023-02-25T03:07:52.728Z,1.90
2023-02-25T03:10:22.707Z,2.10
2023-02-25T03:12:51.011Z,2.00
2023-02-25T03:15:22.116Z,2.15
2023-02-25T03:17:55.474Z,1.85
2023-02-25T03:20:29.239Z,2.22
2023-02-25T03:23:01.228Z,1.60
2023-02-25T03:25:33.045Z,1.45
2023-02-25T03:28:05.828Z,2.00
2023-02-25T03:30:38.842Z,2.03
2023-02-25T03:33:15.620Z,1.95
2023-02-25T03:35:47.148Z,1.60
2023-02-25T03:38:21.125Z,1.48
2023-02-25T03:40:51.272Z,2.25
2023-02-25T03:43:28.000Z,1.90
2023-02-25T03:45:57.547Z,2.10
2023-02-25T03:48:26.667Z,1.88
2023-02-25T03:51:01.351Z,1.73
2023-02-25T03:53:29.869Z,1.80
2023-02-25T03:56:05.467Z,2.38
2023-02-25T03:58:34.726Z,1.85
2023-02-25T04:01:06.325Z,1.98
2023-02-25T04:03:34.426Z,1.92
2023-02-25T04:06:03.773Z,1.73
2023-02-25T04:08:31.703Z,1.73
2023-02-25T04:10:59.697Z,1.60
2023-02-25T04:13:29.815Z,1.90
2023-02-25T04:15:57.903Z,1.88
2023-02-25T04:18:26.632Z,1.60
2023-02-25T04:20:55.201Z,2.00
2023-02-25T04:23:24.495Z,1.92
2023-02-25T04:25:52.518Z,1.75
2023-02-25T04:28:20.469Z,2.35
2023-02-25T04:30:48.650Z,1.60
2023-02-25T04:33:16.693Z,1.80
2023-02-25T04:35:44.778Z,1.50
2023-02-25T04:38:12.756Z,2.05
2023-02-25T04:40:42.464Z,1.63
2023-02-25T04:43:10.886Z,1.90
2023-02-25T04:45:38.843Z,2.20
2023-02-25T04:48:08.616Z,1.92
2023-02-25T04:50:36.591Z,1.73
2023-02-25T04:53:04.949Z,2.17
2023-02-25T04:55:32.965Z,1.60
2023-02-25T04:58:02.237Z,1.90
2023-02-25T05:00:32.771Z,1.75
2023-02-25T05:03:00.740Z,1.65
2023-02-25T05:05:28.727Z,1.80
2023-02-25T05:07:56.700Z,1.92
2023-02-25T05:10:24.650Z,1.88
2023-02-25T05:12:52.642Z,1.60
2023-02-25T05:15:22.085Z,1.70
2023-02-25T05:17:52.973Z,1.77
2023-02-25T05:20:21.137Z,2.00
2023-02-25T05:22:49.152Z,2.00
2023-02-25T05:25:20.233Z,2.03
2023-02-25T05:27:48.276Z,2.00
2023-02-25T05:30:16.750Z,1.90
2023-02-25T05:32:46.149Z,2.10
2023-02-25T05:35:14.340Z,1.58
2023-02-25T05:37:42.310Z,2.08
2023-02-25T05:40:14.118Z,2.10
2023-02-25T05:42:42.303Z,1.80
2023-02-25T05:45:12.208Z,2.05
2023-02-25T05:47:40.128Z,1.90
2023-02-25T05:50:10.870Z,1.95
2023-02-25T05:52:38.950Z,1.88
2023-02-25T05:55:08.863Z,1.70
2023-02-25T05:57:37.146Z,1.90
2023-02-25T06:00:09.163Z,1.92
2023-02-25T06:02:37.971Z,1.60
2023-02-25T06:05:07.062Z,1.60
2023-02-25T06:07:36.671Z,1.85
2023-02-25T06:10:05.368Z,1.90
2023-02-25T06:12:35.002Z,1.77
2023-02-25T06:15:03.132Z,1.70
2023-02-25T06:17:31.081Z,2.38
2023-02-25T06:19:59.074Z,2.17
2023-02-25T06:22:27.053Z,1.77
2023-02-25T06:24:56.343Z,2.03
2023-02-25T06:27:24.579Z,1.95
2023-02-25T06:29:52.538Z,1.90
2023-02-25T06:32:20.795Z,2.30
2023-02-25T06:34:48.978Z,0.88
2023-02-25T06:37:16.920Z,1.85
2023-02-25T06:39:47.706Z,2.25
2023-02-25T06:42:19.578Z,1.55
2023-02-25T06:44:47.790Z,1.92
2023-02-25T06:47:15.727Z,1.73
2023-02-25T06:49:43.954Z,1.67
2023-02-25T06:52:11.891Z,1.70
2023-02-25T06:54:39.816Z,1.60
2023-02-25T06:57:10.315Z,2.17
2023-02-25T06:59:41.934Z,1.95
2023-02-25T07:02:13.652Z,1.75
2023-02-25T07:04:43.984Z,2.05
2023-02-25T07:07:12.654Z,1.88
2023-02-25T07:09:40.602Z,2.38
2023-02-25T07:12:08.607Z,1.80
2023-02-25T07:14:36.586Z,1.50
2023-02-25T07:17:06.238Z,1.90
2023-02-25T07:19:34.232Z,1.63
2023-02-25T07:22:02.171Z,1.42
2023-02-25T07:24:30.252Z,1.50
2023-02-25T07:27:01.373Z,1.60
2023-02-25T07:29:29.359Z,1.50
2023-02-25T07:31:57.622Z,1.58
2023-02-25T07:34:27.166Z,1.55
2023-02-25T07:36:55.141Z,1.42
2023-02-25T07:39:23.361Z,1.42
2023-02-25T07:41:51.348Z,1.60
2023-02-25T07:44:19.378Z,1.63
2023-02-25T07:46:47.402Z,1.60
2023-02-25T07:49:15.366Z,1.65
2023-02-25T07:51:44.737Z,1.38
2023-02-25T07:54:12.679Z,1.88
2023-02-25T07:56:40.652Z,1.52
2023-02-25T07:59:08.557Z,1.75
2023-02-25T08:01:37.442Z,1.30
2023-02-25T08:04:07.152Z,1.48
2023-02-25T08:06:41.374Z,1.52
2023-02-25T08:09:12.391Z,1.50
2023-02-25T08:11:41.296Z,1.63
2023-02-25T08:14:12.058Z,1.90
2023-02-25T08:16:40.505Z,1.75
2023-02-25T08:19:08.509Z,1.60
2023-02-25T08:21:37.534Z,1.40
2023-02-25T08:24:06.173Z,1.60
2023-02-25T08:26:35.935Z,1.38
2023-02-25T08:29:04.794Z,1.90
2023-02-25T08:31:36.015Z,1.55
2023-02-25T08:34:04.147Z,2.08
2023-02-25T08:36:32.746Z,1.77
2023-02-25T08:39:01.575Z,1.52
2023-02-25T08:41:30.354Z,1.65
2023-02-25T08:44:01.927Z,1.60
2023-02-25T08:46:32.155Z,1.70
2023-02-25T08:49:00.095Z,1.80
2023-02-25T08:51:34.069Z,1.70
2023-02-25T08:54:04.522Z,1.98
2023-02-25T08:56:32.598Z,1.45
2023-02-25T08:59:06.197Z,1.40
2023-02-25T09:01:44.696Z,1.52
2023-02-25T09:04:13.781Z,1.30
2023-02-25T09:06:41.817Z,1.50
2023-02-25T09:09:13.387Z,1.77
2023-02-25T09:11:43.426Z,1.40
2023-02-25T09:14:16.402Z,1.30
2023-02-25T09:16:44.545Z,1.30
2023-02-25T09:19:15.654Z,1.25
2023-02-25T09:21:43.701Z,1.33
2023-02-25T09:24:12.066Z,1.73
2023-02-25T09:26:40.073Z,1.42
2023-02-25T09:29:09.132Z,1.20
2023-02-25T09:31:39.868Z,1.42
2023-02-25T09:34:10.521Z,1.17
2023-02-25T09:36:38.504Z,1.33
2023-02-25T09:39:10.296Z,1.23
2023-02-25T09:41:45.891Z,1.00
2023-02-25T09:44:16.724Z,1.23
2023-02-25T09:46:52.202Z,1.35
2023-02-25T09:49:28.410Z,1.50
2023-02-25T09:52:02.215Z,1.50
2023-02-25T09:54:38.314Z,1.23
2023-02-25T09:57:08.297Z,2.10
2023-02-25T09:59:36.260Z,1.77
2023-02-25T10:02:22.669Z,1.35
2023-02-25T10:05:02.828Z,1.35
2023-02-25T10:07:37.287Z,1.13
2023-02-25T10:10:14.394Z,1.55
2023-02-25T10:12:55.215Z,1.08
2023-02-25T10:15:34.391Z,1.40
2023-02-25T10:18:16.472Z,1.02
2023-02-25T10:20:53.100Z,0.88
2023-02-25T10:23:36.250Z,1.15
2023-02-25T10:26:13.242Z,1.30
2023-02-25T10:28:43.105Z,1.55
2023-02-25T10:31:16.384Z,1.17
2023-02-25T10:33:47.701Z,1.60
2023-02-25T10:36:18.131Z,1.20
2023-02-25T10:38:49.913Z,0.80
2023-02-25T10:41:18.278Z,1.20
2023-02-25T10:43:46.849Z,1.20
2023-02-25T10:46:26.142Z,1.15
2023-02-25T10:48:59.371Z,1.20
2023-02-25T10:51:30.318Z,0.82
2023-02-25T10:54:07.584Z,1.60
2023-02-25T10:56:44.548Z,1.10
2023-02-25T10:59:30.187Z,1.05
2023-02-25T11:02:00.841Z,1.13
2023-02-25T11:04:38.481Z,1.40
2023-02-25T11:07:25.956Z,0.98
2023-02-25T11:10:10.105Z,1.10
2023-02-25T11:12:43.179Z,1.83
2023-02-25T11:15:43.736Z,1.63
2023-02-25T11:18:22.173Z,2.85
2023-02-25T11:20:55.126Z,2.20
2023-02-25T11:23:29.233Z,1.90
2023-02-25T11:25:57.851Z,2.20
2023-02-25T11:28:31.512Z,2.50
2023-02-25T11:31:10.252Z,1.70
2023-02-25T11:33:41.625Z,2.10
2023-02-25T11:36:11.886Z,2.47
2023-02-25T11:38:42.314Z,2.30
2023-02-25T11:41:20.832Z,2.28
2023-02-25T11:43:50.542Z,2.67
2023-02-25T11:46:23.931Z,2.53
2023-02-25T11:48:56.818Z,2.53
2023-02-25T11:51:29.485Z,2.58
2023-02-25T11:54:19.362Z,2.17
2023-02-25T11:56:52.091Z,2.17
2023-02-25T11:59:49.895Z,2.35
2023-02-25T12:02:31.622Z,2.22
2023-02-25T12:05:23.807Z,2.17
2023-02-25T12:08:21.091Z,2.58
2023-02-25T12:11:32.079Z,2.08
2023-02-25T12:14:35.616Z,1.83
2023-02-25T12:17:40.778Z,1.90
2023-02-25T12:20:51.823Z,2.15
2023-02-25T12:23:52.213Z,2.03
2023-02-25T12:26:33.787Z,2.17
2023-02-25T12:29:17.291Z,2.20
2023-02-25T12:32:12.320Z,2.00
2023-02-25T12:35:07.915Z,1.90
2023-02-25T12:38:00.052Z,1.83
2023-02-25T12:40:42.486Z,1.80
2023-02-25T12:43:25.943Z,2.10
2023-02-25T12:46:05.681Z,1.90
2023-02-25T12:49:27.395Z,1.92
2023-02-25T12:52:21.009Z,1.70
2023-02-25T12:55:20.294Z,2.10
2023-02-25T12:57:56.349Z,1.80
2023-02-25T13:00:53.113Z,1.63
2023-02-25T13:03:34.144Z,1.65
2023-02-25T13:06:17.169Z,1.60
2023-02-25T13:09:07.251Z,1.70
2023-02-25T13:12:10.647Z,2.22
2023-02-25T13:14:46.960Z,1.85
2023-02-25T13:17:38.845Z,1.80
2023-02-25T13:20:41.292Z,1.70
2023-02-25T13:23:26.422Z,2.00
2023-02-25T13:26:08.402Z,1.63
2023-02-25T13:28:55.010Z,2.08
2023-02-25T13:31:35.837Z,2.00
2023-02-25T13:34:21.221Z,1.98
2023-02-25T13:37:16.259Z,1.65
2023-02-25T13:40:00.281Z,1.58
2023-02-25T13:42:47.230Z,1.50
2023-02-25T13:45:34.940Z,1.88
2023-02-25T13:48:23.160Z,1.70
2023-02-25T13:51:10.480Z,1.30
2023-02-25T13:53:59.168Z,1.60
2023-02-25T13:56:51.370Z,1.75
2023-02-25T13:59:33.072Z,1.25
2023-02-25T14:02:15.356Z,1.40
2023-02-25T14:05:05.096Z,1.80
2023-02-25T14:08:01.701Z,1.75
2023-02-25T14:10:41.871Z,1.90
2023-02-25T14:13:39.499Z,1.70
2023-02-25T14:16:21.609Z,1.40
2023-02-25T14:19:03.535Z,1.75
2023-02-25T14:21:51.766Z,1.40
2023-02-25T14:24:35.286Z,1.10
2023-02-25T14:27:16.572Z,1.52
2023-02-25T14:30:00.152Z,2.03
2023-02-25T14:32:42.553Z,1.50
2023-02-25T14:35:23.794Z,1.40
2023-02-25T14:38:02.829Z,1.30
2023-02-25T14:40:39.579Z,1.17
2023-02-25T14:43:30.190Z,1.65
2023-02-25T14:46:10.810Z,1.30
2023-02-25T14:48:45.624Z,1.13
2023-02-25T14:52:12.814Z,1.50
2023-02-25T14:55:08.633Z,1.65
2023-02-25T14:58:09.298Z,1.10
2023-02-25T15:00:54.932Z,1.30
2023-02-25T15:03:52.007Z,1.67
2023-02-25T15:06:37.492Z,1.08
2023-02-25T15:09:24.910Z,1.40
2023-02-25T15:12:08.865Z,1.17
2023-02-25T15:15:10.062Z,1.65
2023-02-25T15:18:14.421Z,1.17
2023-02-25T15:20:44.137Z,1.35
2023-02-25T15:23:14.301Z,1.08
2023-02-25T15:25:45.928Z,1.35
2023-02-25T15:28:36.894Z,1.10
2023-02-25T15:31:28.658Z,1.23
2023-02-25T15:34:33.633Z,1.17
2023-02-25T15:37:33.741Z,1.80
2023-02-25T15:40:24.395Z,1.42
2023-02-25T15:42:54.592Z,1.45
2023-02-25T15:45:48.828Z,1.10
2023-02-25T15:48:42.281Z,1.40
2023-02-25T15:51:42.125Z,1.70
2023-02-25T15:54:10.721Z,1.13
2023-02-25T15:56:50.963Z,1.33
2023-02-25T15:59:41.159Z,1.23
2023-02-25T16:02:35.142Z,1.40
2023-02-25T16:05:09.827Z,1.40
2023-02-25T16:07:52.860Z,1.20
2023-02-25T16:10:26.507Z,1.50
2023-02-25T16:12:57.400Z,1.50
2023-02-25T16:15:32.451Z,1.38
2023-02-25T16:18:08.815Z,1.63
2023-02-25T16:20:46.733Z,1.30
2023-02-25T16:23:15.902Z,1.20
2023-02-25T16:26:05.696Z,1.52
2023-02-25T16:31:18.457Z,1.40
2023-02-25T16:33:53.054Z,1.02
2023-02-25T16:36:34.753Z,1.40
2023-02-25T16:39:05.250Z,1.20
2023-02-25T16:41:38.596Z,1.30
2023-02-25T16:44:07.819Z,0.93
2023-02-25T16:46:39.159Z,1.20
2023-02-25T16:49:11.321Z,1.20
2023-02-25T16:51:43.381Z,1.45
2023-02-25T16:54:17.028Z,1.30
2023-02-25T16:56:47.456Z,1.23
2023-02-25T16:59:21.749Z,1.25
2023-02-25T17:01:56.918Z,1.23
2023-02-25T17:04:28.629Z,1.17
2023-02-25T17:07:14.760Z,1.13
2023-02-25T17:09:47.676Z,1.42
2023-02-25T17:12:20.768Z,1.00
2023-02-25T17:14:51.697Z,0.80
2023-02-25T17:17:26.618Z,1.10
2023-02-25T17:19:55.757Z,0.98
2023-02-25T17:22:27.275Z,1.00
2023-02-25T17:24:58.532Z,1.20
2023-02-25T17:27:28.429Z,1.20
2023-02-25T17:29:56.521Z,1.08
2023-02-25T17:32:27.297Z,1.50
2023-02-25T17:34:58.765Z,1.38
2023-02-25T17:37:30.690Z,1.00
2023-02-25T17:40:00.799Z,1.10
2023-02-25T17:42:34.584Z,1.40
2023-02-25T17:45:08.576Z,0.98
2023-02-25T17:47:38.219Z,1.00
2023-02-25T17:50:22.970Z,1.25
2023-02-25T17:52:52.356Z,1.20
2023-02-25T17:55:27.149Z,1.30
2023-02-25T17:57:58.977Z,1.33
2023-02-25T18:00:29.585Z,1.40
2023-02-25T18:03:15.432Z,0.82
2023-02-25T18:05:51.276Z,1.35
2023-02-25T18:08:22.384Z,1.40
2023-02-25T18:10:55.235Z,1.67
2023-02-25T18:13:28.069Z,1.67
2023-02-25T18:16:29.537Z,1.33
2023-02-25T18:18:59.955Z,1.55
2023-02-25T18:21:28.987Z,1.65
2023-02-25T18:24:00.233Z,1.65
2023-02-25T18:26:28.309Z,1.20
2023-02-25T18:28:58.518Z,1.77
2023-02-25T18:31:26.602Z,1.50
2023-02-25T18:33:57.615Z,1.33
2023-02-25T18:36:29.242Z,1.70
2023-02-25T18:39:04.524Z,1.65
2023-02-25T18:41:33.630Z,1.40
2023-02-25T18:44:02.395Z,1.55
2023-02-25T18:46:30.619Z,1.58
2023-02-25T18:48:58.842Z,1.70
2023-02-25T18:51:26.845Z,1.60
2023-02-25T18:53:54.821Z,1.33
2023-02-25T18:56:24.446Z,2.08
2023-02-25T18:58:54.611Z,1.45
2023-02-25T19:01:24.639Z,1.65
2023-02-25T19:03:54.021Z,1.58
2023-02-25T19:06:22.170Z,1.90
2023-02-25T19:08:50.262Z,1.85
2023-02-25T19:11:22.437Z,1.70
2023-02-25T19:16:20.724Z,2.00
2023-02-25T19:18:48.787Z,1.90
2023-02-25T19:21:18.748Z,1.70
2023-02-25T19:23:47.362Z,1.65
2023-02-25T19:26:16.198Z,1.92
2023-02-25T19:28:44.529Z,1.95
2023-02-25T19:31:13.896Z,1.95
2023-02-25T19:33:41.969Z,2.00
2023-02-25T19:36:13.116Z,1.73
2023-02-25T19:38:41.184Z,1.88
2023-02-25T19:41:11.432Z,2.13
2023-02-25T19:43:39.468Z,1.73
2023-02-25T19:46:09.675Z,1.88
2023-02-25T19:48:39.064Z,1.60
2023-02-25T19:51:08.326Z,1.70
2023-02-25T19:53:36.739Z,1.52
2023-02-25T19:56:05.459Z,1.90
2023-02-25T19:58:33.399Z,1.70
2023-02-25T20:01:06.806Z,2.00
2023-02-25T20:03:34.893Z,1.80
2023-02-25T20:06:11.768Z,2.00
2023-02-25T20:08:45.862Z,2.28
2023-02-25T20:11:14.388Z,1.90
2023-02-25T20:13:42.335Z,2.03
2023-02-25T20:16:10.419Z,2.10
2023-02-25T20:18:41.447Z,1.60
2023-02-25T20:21:10.862Z,2.28
2023-02-25T20:23:39.822Z,1.85
2023-02-25T20:26:13.908Z,1.88
2023-02-25T20:28:42.408Z,2.10
2023-02-25T20:31:12.252Z,2.42
2023-02-25T20:33:41.586Z,2.20
2023-02-25T20:36:21.773Z,2.33
2023-02-25T20:39:12.535Z,2.30
2023-02-25T20:41:42.055Z,2.17
2023-02-25T20:44:10.845Z,2.38
2023-02-25T20:46:40.165Z,1.90
2023-02-25T20:49:13.092Z,1.92
2023-02-25T20:51:44.852Z,2.00
2023-02-25T20:54:14.129Z,2.10
2023-02-25T20:56:42.832Z,1.73
2023-02-25T20:59:12.743Z,2.00
2023-02-25T21:01:40.804Z,1.83
2023-02-25T21:04:09.234Z,2.05
2023-02-25T21:06:38.355Z,1.88
2023-02-25T21:09:08.619Z,1.98
2023-02-25T21:11:36.520Z,2.13
2023-02-25T21:14:09.037Z,1.63
2023-02-25T21:16:37.824Z,1.85
2023-02-25T21:19:06.823Z,1.80
2023-02-25T21:21:37.235Z,1.95
2023-02-25T21:24:05.683Z,1.95
2023-02-25T21:26:39.169Z,2.08
2023-02-25T21:29:07.751Z,2.05
2023-02-25T21:31:36.212Z,2.10
2023-02-25T21:34:04.900Z,1.83
2023-02-25T21:36:33.114Z,1.75
2023-02-25T21:39:01.157Z,1.80
2023-02-25T21:41:29.126Z,1.83
2023-02-25T21:43:58.488Z,1.70
2023-02-25T21:46:27.021Z,1.80
2023-02-25T21:48:56.754Z,1.60
2023-02-25T21:51:26.544Z,2.08
2023-02-25T21:53:55.736Z,1.80
2023-02-25T21:56:24.384Z,2.00
2023-02-25T21:58:56.487Z,1.73
2023-02-25T22:01:28.285Z,1.67
2023-02-25T22:03:59.449Z,2.00
2023-02-25T22:06:28.608Z,1.67
2023-02-25T22:08:57.544Z,1.60
2023-02-25T22:11:27.728Z,1.92
2023-02-25T22:13:56.046Z,1.92
2023-02-25T22:16:26.283Z,1.90
2023-02-25T22:18:54.761Z,1.67
2023-02-25T22:21:24.606Z,2.03
2023-02-25T22:23:54.399Z,2.08
2023-02-25T22:26:25.425Z,1.55
2023-02-25T22:28:55.617Z,1.60
2023-02-25T22:31:25.452Z,1.70
2023-02-25T22:33:54.028Z,2.10
2023-02-25T22:36:21.959Z,1.98
2023-02-25T22:38:50.594Z,2.80
2023-02-25T22:41:20.524Z,1.67
2023-02-25T22:43:49.286Z,2.40
2023-02-25T22:46:20.296Z,1.73
2023-02-25T22:48:51.728Z,2.10
2023-02-25T22:51:21.707Z,1.65
2023-02-25T22:53:50.131Z,1.65
2023-02-25T22:56:18.478Z,1.80
2023-02-25T22:58:46.483Z,1.70
2023-02-25T23:01:19.304Z,1.90
2023-02-25T23:03:50.803Z,1.70
2023-02-25T23:06:20.744Z,2.00
2023-02-25T23:08:49.919Z,1.70
2023-02-25T23:11:23.616Z,2.08
2023-02-25T23:13:53.381Z,1.88
2023-02-25T23:16:24.217Z,1.85
2023-02-25T23:18:53.904Z,2.17
2023-02-25T23:21:22.123Z,1.67
2023-02-25T23:23:52.473Z,1.30
2023-02-25T23:26:23.808Z,1.98
2023-02-25T23:28:56.092Z,2.00
2023-02-25T23:31:25.669Z,1.80
2023-02-25T23:33:57.382Z,2.15
2023-02-25T23:36:28.139Z,2.25
2023-02-25T23:38:56.804Z,1.92
2023-02-25T23:41:26.091Z,2.10
2023-02-25T23:43:54.543Z,2.22
2023-02-25T23:46:23.183Z,2.00
2023-02-25T23:48:54.914Z,2.00
2023-02-25T23:51:24.826Z,1.77
2023-02-25T23:53:53.574Z,1.85
2023-02-25T23:56:21.539Z,2.00
2023-02-25T23:58:50.371Z,2.10
